sensor_id;sensor_type;location;lat;lon;timestamp;P1;durP1;ratioP1;P2;durP2;ratioP2
74363;SDS011;62797;49.740;10.154;2022-11-27T00:00:59;71.15;;;29.35;;
74363;SDS011;62797;49.740;10.154;2022-11-27T00:03:32;94.57;;;40.92;;
74363;SDS011;62797;49.740;10.154;2022-11-27T00:05:57;85.37;;;44.07;;
74363;SDS011;62797;49.740;10.154;2022-11-27T00:08:23;102.03;;;49.17;;
74363;SDS011;62797;49.740;10.154;2022-11-27T00:10:49;94.78;;;46.05;;
74363;SDS011;62797;49.740;10.154;2022-11-27T00:13:15;89.18;;;43.05;;
74363;SDS011;62797;49.740;10.154;2022-11-27T00:15:41;60.20;;;30.10;;
74363;SDS011;62797;49.740;10.154;2022-11-27T00:18:06;56.00;;;25.65;;
74363;SDS011;62797;49.740;10.154;2022-11-27T00:20:32;48.53;;;21.63;;
74363;SDS011;62797;49.740;10.154;2022-11-27T00:22:58;43.03;;;22.80;;
74363;SDS011;62797;49.740;10.154;2022-11-27T00:25:24;52.28;;;26.00;;
74363;SDS011;62797;49.740;10.154;2022-11-27T00:27:49;57.78;;;23.27;;
74363;SDS011;62797;49.740;10.154;2022-11-27T00:30:15;49.37;;;22.40;;
74363;SDS011;62797;49.740;10.154;2022-11-27T00:32:40;54.50;;;23.95;;
74363;SDS011;62797;49.740;10.154;2022-11-27T00:35:06;53.85;;;25.63;;
74363;SDS011;62797;49.740;10.154;2022-11-27T00:37:32;60.88;;;27.10;;
74363;SDS011;62797;49.740;10.154;2022-11-27T00:39:58;44.88;;;23.13;;
74363;SDS011;62797;49.740;10.154;2022-11-27T00:42:23;55.30;;;24.13;;
74363;SDS011;62797;49.740;10.154;2022-11-27T00:44:49;49.88;;;26.15;;
74363;SDS011;62797;49.740;10.154;2022-11-27T00:49:40;61.63;;;26.60;;
74363;SDS011;62797;49.740;10.154;2022-11-27T00:52:06;66.60;;;25.90;;
74363;SDS011;62797;49.740;10.154;2022-11-27T00:54:32;70.53;;;25.73;;
74363;SDS011;62797;49.740;10.154;2022-11-27T00:56:57;41.40;;;19.77;;
74363;SDS011;62797;49.740;10.154;2022-11-27T00:59:23;51.25;;;22.25;;
74363;SDS011;62797;49.740;10.154;2022-11-27T01:01:49;53.50;;;20.05;;
74363;SDS011;62797;49.740;10.154;2022-11-27T01:04:14;47.63;;;23.13;;
74363;SDS011;62797;49.740;10.154;2022-11-27T01:06:40;49.47;;;19.20;;
74363;SDS011;62797;49.740;10.154;2022-11-27T01:11:32;46.08;;;20.17;;
74363;SDS011;62797;49.740;10.154;2022-11-27T01:14:00;49.90;;;21.92;;
74363;SDS011;62797;49.740;10.154;2022-11-27T01:16:28;41.95;;;19.25;;
74363;SDS011;62797;49.740;10.154;2022-11-27T01:18:56;46.85;;;20.83;;
74363;SDS011;62797;49.740;10.154;2022-11-27T01:21:22;40.17;;;18.27;;
74363;SDS011;62797;49.740;10.154;2022-11-27T01:23:49;40.63;;;18.98;;
74363;SDS011;62797;49.740;10.154;2022-11-27T01:26:16;36.13;;;19.15;;
74363;SDS011;62797;49.740;10.154;2022-11-27T01:28:42;38.95;;;20.65;;
74363;SDS011;62797;49.740;10.154;2022-11-27T01:31:12;32.03;;;19.10;;
74363;SDS011;62797;49.740;10.154;2022-11-27T01:33:43;43.78;;;20.45;;
74363;SDS011;62797;49.740;10.154;2022-11-27T01:36:10;57.60;;;25.80;;
74363;SDS011;62797;49.740;10.154;2022-11-27T01:38:39;39.42;;;20.50;;
74363;SDS011;62797;49.740;10.154;2022-11-27T01:41:13;39.40;;;20.45;;
74363;SDS011;62797;49.740;10.154;2022-11-27T01:43:44;55.85;;;26.15;;
74363;SDS011;62797;49.740;10.154;2022-11-27T01:48:58;51.30;;;21.17;;
74363;SDS011;62797;49.740;10.154;2022-11-27T01:51:29;50.78;;;23.90;;
74363;SDS011;62797;49.740;10.154;2022-11-27T01:53:55;44.42;;;21.52;;
74363;SDS011;62797;49.740;10.154;2022-11-27T01:56:21;45.75;;;22.00;;
74363;SDS011;62797;49.740;10.154;2022-11-27T01:58:49;41.55;;;21.52;;
74363;SDS011;62797;49.740;10.154;2022-11-27T02:01:15;64.15;;;22.25;;
74363;SDS011;62797;49.740;10.154;2022-11-27T02:03:41;45.95;;;20.25;;
74363;SDS011;62797;49.740;10.154;2022-11-27T02:06:09;45.03;;;21.52;;
74363;SDS011;62797;49.740;10.154;2022-11-27T02:08:37;44.55;;;22.13;;
74363;SDS011;62797;49.740;10.154;2022-11-27T02:11:05;49.45;;;22.40;;
74363;SDS011;62797;49.740;10.154;2022-11-27T02:13:43;56.83;;;20.35;;
74363;SDS011;62797;49.740;10.154;2022-11-27T02:16:23;36.22;;;19.58;;
74363;SDS011;62797;49.740;10.154;2022-11-27T02:21:38;41.10;;;20.55;;
74363;SDS011;62797;49.740;10.154;2022-11-27T02:24:40;58.10;;;21.25;;
74363;SDS011;62797;49.740;10.154;2022-11-27T02:30:02;50.47;;;19.25;;
74363;SDS011;62797;49.740;10.154;2022-11-27T02:38:09;55.20;;;19.80;;
74363;SDS011;62797;49.740;10.154;2022-11-27T02:40:58;62.35;;;18.67;;
74363;SDS011;62797;49.740;10.154;2022-11-27T02:43:32;83.45;;;17.00;;
74363;SDS011;62797;49.740;10.154;2022-11-27T02:46:01;64.75;;;19.73;;
74363;SDS011;62797;49.740;10.154;2022-11-27T02:48:33;56.97;;;18.95;;
74363;SDS011;62797;49.740;10.154;2022-11-27T02:51:07;53.13;;;19.15;;
74363;SDS011;62797;49.740;10.154;2022-11-27T02:53:36;68.35;;;16.73;;
74363;SDS011;62797;49.740;10.154;2022-11-27T02:56:08;70.43;;;16.60;;
74363;SDS011;62797;49.740;10.154;2022-11-27T02:58:38;80.80;;;17.20;;
74363;SDS011;62797;49.740;10.154;2022-11-27T03:01:05;62.17;;;16.65;;
74363;SDS011;62797;49.740;10.154;2022-11-27T03:03:34;88.68;;;19.27;;
74363;SDS011;62797;49.740;10.154;2022-11-27T03:06:07;102.97;;;23.67;;
74363;SDS011;62797;49.740;10.154;2022-11-27T03:08:47;124.97;;;18.33;;
74363;SDS011;62797;49.740;10.154;2022-11-27T03:11:20;52.72;;;14.23;;
74363;SDS011;62797;49.740;10.154;2022-11-27T03:16:26;164.98;;;22.10;;
74363;SDS011;62797;49.740;10.154;2022-11-27T03:19:21;59.35;;;16.52;;
74363;SDS011;62797;49.740;10.154;2022-11-27T03:21:52;105.78;;;20.15;;
74363;SDS011;62797;49.740;10.154;2022-11-27T03:24:22;50.80;;;16.13;;
74363;SDS011;62797;49.740;10.154;2022-11-27T03:32:03;38.58;;;16.70;;
74363;SDS011;62797;49.740;10.154;2022-11-27T03:34:29;32.42;;;15.10;;
74363;SDS011;62797;49.740;10.154;2022-11-27T03:36:55;36.83;;;17.15;;
74363;SDS011;62797;49.740;10.154;2022-11-27T03:39:21;31.73;;;16.43;;
74363;SDS011;62797;49.740;10.154;2022-11-27T04:00:35;40.17;;;18.67;;
74363;SDS011;62797;49.740;10.154;2022-11-27T04:03:07;32.95;;;16.90;;
74363;SDS011;62797;49.740;10.154;2022-11-27T04:05:34;38.20;;;17.75;;
74363;SDS011;62797;49.740;10.154;2022-11-27T04:08:00;34.65;;;17.52;;
74363;SDS011;62797;49.740;10.154;2022-11-27T04:10:26;31.92;;;17.77;;
74363;SDS011;62797;49.740;10.154;2022-11-27T04:12:51;35.97;;;16.80;;
74363;SDS011;62797;49.740;10.154;2022-11-27T04:15:17;29.05;;;16.85;;
74363;SDS011;62797;49.740;10.154;2022-11-27T04:17:42;33.87;;;15.33;;
74363;SDS011;62797;49.740;10.154;2022-11-27T04:20:08;29.67;;;13.27;;
74363;SDS011;62797;49.740;10.154;2022-11-27T04:22:36;25.88;;;13.32;;
74363;SDS011;62797;49.740;10.154;2022-11-27T04:25:02;50.03;;;15.23;;
74363;SDS011;62797;49.740;10.154;2022-11-27T04:27:28;60.83;;;15.52;;
74363;SDS011;62797;49.740;10.154;2022-11-27T04:29:53;66.70;;;15.98;;
74363;SDS011;62797;49.740;10.154;2022-11-27T04:32:19;68.63;;;17.75;;
74363;SDS011;62797;49.740;10.154;2022-11-27T04:34:45;34.70;;;13.77;;
74363;SDS011;62797;49.740;10.154;2022-11-27T04:37:10;36.00;;;16.33;;
74363;SDS011;62797;49.740;10.154;2022-11-27T04:39:36;46.78;;;14.38;;
74363;SDS011;62797;49.740;10.154;2022-11-27T04:42:01;23.47;;;12.60;;
74363;SDS011;62797;49.740;10.154;2022-11-27T04:44:27;24.75;;;12.27;;
74363;SDS011;62797;49.740;10.154;2022-11-27T04:46:52;46.10;;;12.93;;
74363;SDS011;62797;49.740;10.154;2022-11-27T04:49:18;29.83;;;16.47;;
74363;SDS011;62797;49.740;10.154;2022-11-27T04:51:44;28.23;;;16.67;;
74363;SDS011;62797;49.740;10.154;2022-11-27T04:54:10;28.45;;;14.23;;
74363;SDS011;62797;49.740;10.154;2022-11-27T04:56:36;37.88;;;17.85;;
74363;SDS011;62797;49.740;10.154;2022-11-27T04:59:01;40.70;;;19.15;;
74363;SDS011;62797;49.740;10.154;2022-11-27T05:03:53;40.92;;;19.58;;
74363;SDS011;62797;49.740;10.154;2022-11-27T05:06:18;30.67;;;16.13;;
74363;SDS011;62797;49.740;10.154;2022-11-27T05:08:46;33.17;;;16.30;;
74363;SDS011;62797;49.740;10.154;2022-11-27T05:11:12;32.00;;;15.23;;
74363;SDS011;62797;49.740;10.154;2022-11-27T05:13:40;32.25;;;16.33;;
74363;SDS011;62797;49.740;10.154;2022-11-27T05:16:06;25.65;;;14.75;;
74363;SDS011;62797;49.740;10.154;2022-11-27T05:18:32;30.27;;;14.52;;
74363;SDS011;62797;49.740;10.154;2022-11-27T05:20:58;32.55;;;16.80;;
74363;SDS011;62797;49.740;10.154;2022-11-27T05:23:29;59.83;;;16.17;;
74363;SDS011;62797;49.740;10.154;2022-11-27T05:25:55;43.15;;;17.65;;
74363;SDS011;62797;49.740;10.154;2022-11-27T05:28:22;29.73;;;14.88;;
74363;SDS011;62797;49.740;10.154;2022-11-27T05:30:48;24.85;;;12.50;;
74363;SDS011;62797;49.740;10.154;2022-11-27T05:33:14;26.38;;;13.05;;
74363;SDS011;62797;49.740;10.154;2022-11-27T05:35:40;26.05;;;12.77;;
74363;SDS011;62797;49.740;10.154;2022-11-27T05:40:32;23.75;;;12.68;;
74363;SDS011;62797;49.740;10.154;2022-11-27T05:42:58;29.50;;;14.03;;
74363;SDS011;62797;49.740;10.154;2022-11-27T05:45:23;32.30;;;12.73;;
74363;SDS011;62797;49.740;10.154;2022-11-27T05:47:49;34.30;;;13.53;;
74363;SDS011;62797;49.740;10.154;2022-11-27T05:50:14;39.53;;;12.73;;
74363;SDS011;62797;49.740;10.154;2022-11-27T05:52:40;31.20;;;13.25;;
74363;SDS011;62797;49.740;10.154;2022-11-27T05:55:06;22.92;;;11.65;;
74363;SDS011;62797;49.740;10.154;2022-11-27T05:57:32;18.88;;;10.68;;
74363;SDS011;62797;49.740;10.154;2022-11-27T05:59:57;38.77;;;11.13;;
74363;SDS011;62797;49.740;10.154;2022-11-27T06:02:23;83.80;;;13.50;;
74363;SDS011;62797;49.740;10.154;2022-11-27T06:07:15;93.95;;;17.85;;
74363;SDS011;62797;49.740;10.154;2022-11-27T06:09:41;16.05;;;9.52;;
74363;SDS011;62797;49.740;10.154;2022-11-27T06:12:06;34.10;;;10.63;;
74363;SDS011;62797;49.740;10.154;2022-11-27T06:14:32;37.83;;;10.02;;
74363;SDS011;62797;49.740;10.154;2022-11-27T06:16:59;85.38;;;14.40;;
74363;SDS011;62797;49.740;10.154;2022-11-27T06:21:51;28.23;;;11.52;;
74363;SDS011;62797;49.740;10.154;2022-11-27T06:24:16;19.10;;;11.80;;
74363;SDS011;62797;49.740;10.154;2022-11-27T06:26:42;119.80;;;15.32;;
74363;SDS011;62797;49.740;10.154;2022-11-27T06:29:08;38.28;;;11.75;;
74363;SDS011;62797;49.740;10.154;2022-11-27T06:31:33;34.20;;;10.18;;
74363;SDS011;62797;49.740;10.154;2022-11-27T06:34:00;149.80;;;15.60;;
74363;SDS011;62797;49.740;10.154;2022-11-27T06:36:27;41.40;;;11.82;;
74363;SDS011;62797;49.740;10.154;2022-11-27T06:38:55;28.70;;;10.90;;
74363;SDS011;62797;49.740;10.154;2022-11-27T06:41:21;20.20;;;11.27;;
74363;SDS011;62797;49.740;10.154;2022-11-27T06:43:48;26.60;;;10.88;;
74363;SDS011;62797;49.740;10.154;2022-11-27T06:46:15;38.03;;;11.45;;
74363;SDS011;62797;49.740;10.154;2022-11-27T06:48:42;153.00;;;16.60;;
74363;SDS011;62797;49.740;10.154;2022-11-27T06:51:10;27.23;;;12.00;;
74363;SDS011;62797;49.740;10.154;2022-11-27T06:53:38;48.13;;;12.35;;
74363;SDS011;62797;49.740;10.154;2022-11-27T06:56:05;56.47;;;13.60;;
74363;SDS011;62797;49.740;10.154;2022-11-27T06:58:33;31.50;;;16.10;;
74363;SDS011;62797;49.740;10.154;2022-11-27T07:00:59;92.13;;;14.77;;
74363;SDS011;62797;49.740;10.154;2022-11-27T07:03:26;55.42;;;14.30;;
74363;SDS011;62797;49.740;10.154;2022-11-27T07:05:52;84.82;;;15.80;;
74363;SDS011;62797;49.740;10.154;2022-11-27T07:08:18;53.90;;;13.70;;
74363;SDS011;62797;49.740;10.154;2022-11-27T07:10:44;27.00;;;12.75;;
74363;SDS011;62797;49.740;10.154;2022-11-27T07:13:09;153.40;;;17.60;;
74363;SDS011;62797;49.740;10.154;2022-11-27T07:15:35;39.37;;;13.40;;
74363;SDS011;62797;49.740;10.154;2022-11-27T07:18:01;77.95;;;14.45;;
74363;SDS011;62797;49.740;10.154;2022-11-27T07:20:27;27.15;;;12.40;;
74363;SDS011;62797;49.740;10.154;2022-11-27T07:22:52;38.38;;;13.23;;
74363;SDS011;62797;49.740;10.154;2022-11-27T07:25:18;64.57;;;14.53;;
74363;SDS011;62797;49.740;10.154;2022-11-27T07:27:43;100.88;;;15.88;;
74363;SDS011;62797;49.740;10.154;2022-11-27T07:30:09;61.83;;;17.42;;
74363;SDS011;62797;49.740;10.154;2022-11-27T07:32:35;25.05;;;12.25;;
74363;SDS011;62797;49.740;10.154;2022-11-27T07:35:00;24.75;;;13.32;;
74363;SDS011;62797;49.740;10.154;2022-11-27T07:37:29;42.67;;;15.87;;
74363;SDS011;62797;49.740;10.154;2022-11-27T07:39:55;36.03;;;13.23;;
74363;SDS011;62797;49.740;10.154;2022-11-27T07:42:20;45.65;;;15.35;;
74363;SDS011;62797;49.740;10.154;2022-11-27T07:44:46;42.73;;;15.57;;
74363;SDS011;62797;49.740;10.154;2022-11-27T07:47:11;34.17;;;14.53;;
74363;SDS011;62797;49.740;10.154;2022-11-27T07:49:37;35.70;;;13.60;;
74363;SDS011;62797;49.740;10.154;2022-11-27T07:52:02;51.30;;;16.67;;
74363;SDS011;62797;49.740;10.154;2022-11-27T07:54:28;30.48;;;12.95;;
74363;SDS011;62797;49.740;10.154;2022-11-27T07:56:54;39.13;;;14.80;;
74363;SDS011;62797;49.740;10.154;2022-11-27T07:59:19;26.73;;;12.37;;
74363;SDS011;62797;49.740;10.154;2022-11-27T08:01:45;27.05;;;12.38;;
74363;SDS011;62797;49.740;10.154;2022-11-27T08:04:10;43.55;;;14.18;;
74363;SDS011;62797;49.740;10.154;2022-11-27T08:06:36;31.87;;;14.10;;
74363;SDS011;62797;49.740;10.154;2022-11-27T08:09:02;39.13;;;13.55;;
74363;SDS011;62797;49.740;10.154;2022-11-27T08:11:28;31.02;;;13.20;;
74363;SDS011;62797;49.740;10.154;2022-11-27T08:13:57;29.80;;;13.35;;
74363;SDS011;62797;49.740;10.154;2022-11-27T08:16:29;34.83;;;15.70;;
74363;SDS011;62797;49.740;10.154;2022-11-27T08:18:55;41.40;;;16.05;;
74363;SDS011;62797;49.740;10.154;2022-11-27T08:21:21;34.38;;;14.65;;
74363;SDS011;62797;49.740;10.154;2022-11-27T08:23:47;32.87;;;14.53;;
74363;SDS011;62797;49.740;10.154;2022-11-27T08:26:12;32.83;;;15.35;;
74363;SDS011;62797;49.740;10.154;2022-11-27T08:28:39;31.38;;;14.23;;
74363;SDS011;62797;49.740;10.154;2022-11-27T08:31:06;33.17;;;14.52;;
74363;SDS011;62797;49.740;10.154;2022-11-27T08:33:33;38.10;;;17.13;;
74363;SDS011;62797;49.740;10.154;2022-11-27T08:35:59;36.15;;;15.23;;
74363;SDS011;62797;49.740;10.154;2022-11-27T08:38:25;38.13;;;17.70;;
74363;SDS011;62797;49.740;10.154;2022-11-27T08:40:58;37.77;;;14.87;;
74363;SDS011;62797;49.740;10.154;2022-11-27T08:43:25;40.33;;;16.80;;
74363;SDS011;62797;49.740;10.154;2022-11-27T08:45:52;38.05;;;16.17;;
74363;SDS011;62797;49.740;10.154;2022-11-27T08:48:18;48.70;;;17.13;;
74363;SDS011;62797;49.740;10.154;2022-11-27T08:50:44;37.65;;;16.80;;
74363;SDS011;62797;49.740;10.154;2022-11-27T08:53:10;37.87;;;17.83;;
74363;SDS011;62797;49.740;10.154;2022-11-27T08:55:36;43.70;;;18.27;;
74363;SDS011;62797;49.740;10.154;2022-11-27T08:58:02;46.53;;;19.52;;
74363;SDS011;62797;49.740;10.154;2022-11-27T09:00:29;37.58;;;16.73;;
74363;SDS011;62797;49.740;10.154;2022-11-27T09:02:55;42.90;;;19.60;;
74363;SDS011;62797;49.740;10.154;2022-11-27T09:05:22;39.35;;;17.45;;
74363;SDS011;62797;49.740;10.154;2022-11-27T09:07:49;50.55;;;20.33;;
74363;SDS011;62797;49.740;10.154;2022-11-27T09:10:15;46.65;;;21.27;;
74363;SDS011;62797;49.740;10.154;2022-11-27T09:12:40;46.83;;;18.80;;
74363;SDS011;62797;49.740;10.154;2022-11-27T09:15:08;38.20;;;18.17;;
74363;SDS011;62797;49.740;10.154;2022-11-27T09:17:37;44.65;;;19.17;;
74363;SDS011;62797;49.740;10.154;2022-11-27T09:20:03;40.20;;;18.93;;
74363;SDS011;62797;49.740;10.154;2022-11-27T09:22:30;36.40;;;16.58;;
74363;SDS011;62797;49.740;10.154;2022-11-27T09:27:22;31.42;;;15.18;;
74363;SDS011;62797;49.740;10.154;2022-11-27T09:29:47;45.63;;;20.40;;
74363;SDS011;62797;49.740;10.154;2022-11-27T09:32:13;44.20;;;19.75;;
74363;SDS011;62797;49.740;10.154;2022-11-27T09:34:39;36.40;;;15.77;;
74363;SDS011;62797;49.740;10.154;2022-11-27T09:37:05;38.40;;;17.25;;
74363;SDS011;62797;49.740;10.154;2022-11-27T09:39:30;31.88;;;16.85;;
74363;SDS011;62797;49.740;10.154;2022-11-27T09:41:58;34.70;;;16.00;;
74363;SDS011;62797;49.740;10.154;2022-11-27T09:44:33;34.90;;;16.60;;
74363;SDS011;62797;49.740;10.154;2022-11-27T09:50:03;39.83;;;15.68;;
74363;SDS011;62797;49.740;10.154;2022-11-27T09:52:40;39.90;;;18.17;;
74363;SDS011;62797;49.740;10.154;2022-11-27T09:58:10;35.92;;;15.73;;
74363;SDS011;62797;49.740;10.154;2022-11-27T10:00:44;33.40;;;16.10;;
74363;SDS011;62797;49.740;10.154;2022-11-27T10:03:14;33.05;;;16.05;;
74363;SDS011;62797;49.740;10.154;2022-11-27T10:05:49;41.90;;;17.30;;
74363;SDS011;62797;49.740;10.154;2022-11-27T10:11:13;42.22;;;19.88;;
74363;SDS011;62797;49.740;10.154;2022-11-27T10:16:32;36.60;;;16.65;;
74363;SDS011;62797;49.740;10.154;2022-11-27T10:19:07;35.70;;;17.75;;
74363;SDS011;62797;49.740;10.154;2022-11-27T10:21:58;27.00;;;13.02;;
74363;SDS011;62797;49.740;10.154;2022-11-27T10:27:35;33.53;;;16.67;;
74363;SDS011;62797;49.740;10.154;2022-11-27T10:30:12;34.72;;;16.73;;
74363;SDS011;62797;49.740;10.154;2022-11-27T10:32:43;31.73;;;16.38;;
74363;SDS011;62797;49.740;10.154;2022-11-27T10:35:16;39.13;;;17.85;;
74363;SDS011;62797;49.740;10.154;2022-11-27T10:37:57;33.28;;;15.68;;
74363;SDS011;62797;49.740;10.154;2022-11-27T10:40:39;30.90;;;14.90;;
74363;SDS011;62797;49.740;10.154;2022-11-27T10:48:16;31.90;;;16.17;;
74363;SDS011;62797;49.740;10.154;2022-11-27T10:50:43;32.03;;;15.23;;
74363;SDS011;62797;49.740;10.154;2022-11-27T10:53:11;26.08;;;14.73;;
74363;SDS011;62797;49.740;10.154;2022-11-27T10:56:08;29.02;;;14.30;;
74363;SDS011;62797;49.740;10.154;2022-11-27T10:59:04;26.30;;;13.90;;
74363;SDS011;62797;49.740;10.154;2022-11-27T11:01:41;28.05;;;14.15;;
74363;SDS011;62797;49.740;10.154;2022-11-27T11:04:09;29.83;;;14.35;;
74363;SDS011;62797;49.740;10.154;2022-11-27T11:06:41;26.50;;;14.35;;
74363;SDS011;62797;49.740;10.154;2022-11-27T11:11:43;29.10;;;14.40;;
74363;SDS011;62797;49.740;10.154;2022-11-27T11:14:16;24.02;;;14.15;;
74363;SDS011;62797;49.740;10.154;2022-11-27T11:16:50;23.90;;;12.32;;
74363;SDS011;62797;49.740;10.154;2022-11-27T11:19:30;25.60;;;14.70;;
74363;SDS011;62797;49.740;10.154;2022-11-27T11:21:58;29.50;;;13.95;;
74363;SDS011;62797;49.740;10.154;2022-11-27T11:24:28;24.35;;;12.38;;
74363;SDS011;62797;49.740;10.154;2022-11-27T11:26:57;27.60;;;13.40;;
74363;SDS011;62797;49.740;10.154;2022-11-27T11:29:35;24.60;;;13.38;;
74363;SDS011;62797;49.740;10.154;2022-11-27T11:37:28;20.85;;;12.07;;
74363;SDS011;62797;49.740;10.154;2022-11-27T11:42:33;25.15;;;12.68;;
74363;SDS011;62797;49.740;10.154;2022-11-27T11:47:47;23.35;;;14.05;;
74363;SDS011;62797;49.740;10.154;2022-11-27T11:50:16;28.55;;;12.85;;
74363;SDS011;62797;49.740;10.154;2022-11-27T11:56:36;21.05;;;11.32;;
74363;SDS011;62797;49.740;10.154;2022-11-27T11:59:11;24.83;;;12.73;;
74363;SDS011;62797;49.740;10.154;2022-11-27T12:10:32;17.13;;;10.70;;
74363;SDS011;62797;49.740;10.154;2022-11-27T12:16:13;20.38;;;10.55;;
74363;SDS011;62797;49.740;10.154;2022-11-27T12:21:53;18.20;;;9.80;;
74363;SDS011;62797;49.740;10.154;2022-11-27T12:27:46;19.95;;;11.38;;
74363;SDS011;62797;49.740;10.154;2022-11-27T12:30:22;22.88;;;11.93;;
74363;SDS011;62797;49.740;10.154;2022-11-27T12:43:44;17.13;;;9.73;;
74363;SDS011;62797;49.740;10.154;2022-11-27T12:46:18;21.48;;;10.77;;
74363;SDS011;62797;49.740;10.154;2022-11-27T12:52:27;24.30;;;10.32;;
74363;SDS011;62797;49.740;10.154;2022-11-27T12:57:16;18.73;;;10.23;;
74363;SDS011;62797;49.740;10.154;2022-11-27T12:59:49;20.05;;;10.30;;
74363;SDS011;62797;49.740;10.154;2022-11-27T13:05:02;22.05;;;10.32;;
74363;SDS011;62797;49.740;10.154;2022-11-27T13:13:04;15.32;;;8.57;;
74363;SDS011;62797;49.740;10.154;2022-11-27T13:15:34;19.63;;;9.85;;
74363;SDS011;62797;49.740;10.154;2022-11-27T13:18:10;16.65;;;9.68;;
74363;SDS011;62797;49.740;10.154;2022-11-27T13:20:44;20.42;;;10.88;;
74363;SDS011;62797;49.740;10.154;2022-11-27T13:23:11;26.13;;;12.52;;
74363;SDS011;62797;49.740;10.154;2022-11-27T13:25:42;20.53;;;10.63;;
74363;SDS011;62797;49.740;10.154;2022-11-27T13:28:31;23.75;;;12.63;;
74363;SDS011;62797;49.740;10.154;2022-11-27T13:31:04;23.70;;;11.02;;
74363;SDS011;62797;49.740;10.154;2022-11-27T13:33:35;23.30;;;11.88;;
74363;SDS011;62797;49.740;10.154;2022-11-27T13:36:06;18.20;;;10.70;;
74363;SDS011;62797;49.740;10.154;2022-11-27T13:38:44;23.17;;;10.13;;
74363;SDS011;62797;49.740;10.154;2022-11-27T13:41:20;20.50;;;10.02;;
74363;SDS011;62797;49.740;10.154;2022-11-27T13:43:48;27.13;;;13.32;;
74363;SDS011;62797;49.740;10.154;2022-11-27T13:48:53;26.98;;;9.77;;
74363;SDS011;62797;49.740;10.154;2022-11-27T13:51:30;21.55;;;10.43;;
74363;SDS011;62797;49.740;10.154;2022-11-27T13:54:11;19.58;;;9.88;;
74363;SDS011;62797;49.740;10.154;2022-11-27T13:56:39;20.63;;;10.40;;
74363;SDS011;62797;49.740;10.154;2022-11-27T13:59:19;25.40;;;10.45;;
74363;SDS011;62797;49.740;10.154;2022-11-27T14:01:59;28.35;;;13.65;;
74363;SDS011;62797;49.740;10.154;2022-11-27T14:04:27;27.58;;;12.48;;
74363;SDS011;62797;49.740;10.154;2022-11-27T14:06:56;23.55;;;11.85;;
74363;SDS011;62797;49.740;10.154;2022-11-27T14:09:44;26.70;;;12.88;;
74363;SDS011;62797;49.740;10.154;2022-11-27T14:12:13;26.88;;;11.77;;
74363;SDS011;62797;49.740;10.154;2022-11-27T14:15:01;22.85;;;12.50;;
74363;SDS011;62797;49.740;10.154;2022-11-27T14:17:35;26.73;;;12.43;;
74363;SDS011;62797;49.740;10.154;2022-11-27T14:20:18;22.55;;;12.07;;
74363;SDS011;62797;49.740;10.154;2022-11-27T14:22:47;25.98;;;12.88;;
74363;SDS011;62797;49.740;10.154;2022-11-27T14:25:24;22.58;;;12.40;;
74363;SDS011;62797;49.740;10.154;2022-11-27T14:30:40;24.15;;;12.55;;
74363;SDS011;62797;49.740;10.154;2022-11-27T14:33:24;22.92;;;13.40;;
74363;SDS011;62797;49.740;10.154;2022-11-27T14:35:58;23.27;;;11.82;;
74363;SDS011;62797;49.740;10.154;2022-11-27T14:38:26;34.20;;;13.80;;
74363;SDS011;62797;49.740;10.154;2022-11-27T14:40:53;35.85;;;15.55;;
74363;SDS011;62797;49.740;10.154;2022-11-27T14:43:32;22.52;;;13.15;;
74363;SDS011;62797;49.740;10.154;2022-11-27T14:45:58;17.73;;;9.40;;
74363;SDS011;62797;49.740;10.154;2022-11-27T14:51:12;28.52;;;14.40;;
74363;SDS011;62797;49.740;10.154;2022-11-27T14:53:46;28.48;;;12.68;;
74363;SDS011;62797;49.740;10.154;2022-11-27T14:56:14;22.58;;;11.90;;
74363;SDS011;62797;49.740;10.154;2022-11-27T14:58:48;27.15;;;13.27;;
74363;SDS011;62797;49.740;10.154;2022-11-27T15:01:27;29.35;;;13.50;;
74363;SDS011;62797;49.740;10.154;2022-11-27T15:03:57;25.75;;;12.65;;
74363;SDS011;62797;49.740;10.154;2022-11-27T15:06:32;22.48;;;11.80;;
74363;SDS011;62797;49.740;10.154;2022-11-27T15:09:01;26.30;;;13.52;;
74363;SDS011;62797;49.740;10.154;2022-11-27T15:11:27;27.98;;;13.60;;
74363;SDS011;62797;49.740;10.154;2022-11-27T15:13:54;25.75;;;14.40;;
74363;SDS011;62797;49.740;10.154;2022-11-27T15:16:23;35.00;;;15.23;;
74363;SDS011;62797;49.740;10.154;2022-11-27T15:18:53;24.80;;;14.18;;
74363;SDS011;62797;49.740;10.154;2022-11-27T15:21:21;31.17;;;14.48;;
74363;SDS011;62797;49.740;10.154;2022-11-27T15:23:51;22.65;;;12.60;;
74363;SDS011;62797;49.740;10.154;2022-11-27T15:26:27;27.08;;;13.88;;
74363;SDS011;62797;49.740;10.154;2022-11-27T15:28:58;28.45;;;14.00;;
74363;SDS011;62797;49.740;10.154;2022-11-27T15:33:59;28.63;;;14.20;;
74363;SDS011;62797;49.740;10.154;2022-11-27T15:36:25;24.10;;;13.05;;
74363;SDS011;62797;49.740;10.154;2022-11-27T15:41:27;26.88;;;15.15;;
74363;SDS011;62797;49.740;10.154;2022-11-27T15:43:54;28.10;;;14.88;;
74363;SDS011;62797;49.740;10.154;2022-11-27T15:46:25;25.52;;;12.30;;
74363;SDS011;62797;49.740;10.154;2022-11-27T15:48:54;28.23;;;14.93;;
74363;SDS011;62797;49.740;10.154;2022-11-27T15:51:20;39.50;;;19.48;;
74363;SDS011;62797;49.740;10.154;2022-11-27T15:53:46;59.60;;;15.82;;
74363;SDS011;62797;49.740;10.154;2022-11-27T15:56:13;29.15;;;14.50;;
74363;SDS011;62797;49.740;10.154;2022-11-27T15:58:39;26.38;;;14.07;;
74363;SDS011;62797;49.740;10.154;2022-11-27T16:01:05;29.95;;;16.02;;
74363;SDS011;62797;49.740;10.154;2022-11-27T16:03:31;30.23;;;15.52;;
74363;SDS011;62797;49.740;10.154;2022-11-27T16:06:00;31.23;;;15.23;;
74363;SDS011;62797;49.740;10.154;2022-11-27T16:08:28;28.35;;;15.20;;
74363;SDS011;62797;49.740;10.154;2022-11-27T16:10:57;34.87;;;17.33;;
74363;SDS011;62797;49.740;10.154;2022-11-27T16:13:24;31.13;;;15.10;;
74363;SDS011;62797;49.740;10.154;2022-11-27T16:15:50;36.60;;;16.17;;
74363;SDS011;62797;49.740;10.154;2022-11-27T16:18:15;36.70;;;17.20;;
74363;SDS011;62797;49.740;10.154;2022-11-27T16:20:41;32.53;;;15.57;;
74363;SDS011;62797;49.740;10.154;2022-11-27T16:23:07;29.93;;;16.53;;
74363;SDS011;62797;49.740;10.154;2022-11-27T16:25:32;27.33;;;14.90;;
74363;SDS011;62797;49.740;10.154;2022-11-27T16:27:58;34.83;;;15.60;;
74363;SDS011;62797;49.740;10.154;2022-11-27T16:30:23;35.50;;;18.13;;
74363;SDS011;62797;49.740;10.154;2022-11-27T16:32:49;34.53;;;15.97;;
74363;SDS011;62797;49.740;10.154;2022-11-27T16:35:14;30.47;;;16.20;;
74363;SDS011;62797;49.740;10.154;2022-11-27T16:37:40;33.03;;;15.93;;
74363;SDS011;62797;49.740;10.154;2022-11-27T16:40:06;28.75;;;15.15;;
74363;SDS011;62797;49.740;10.154;2022-11-27T16:42:32;34.83;;;18.02;;
74363;SDS011;62797;49.740;10.154;2022-11-27T16:44:57;31.60;;;14.67;;
74363;SDS011;62797;49.740;10.154;2022-11-27T16:47:23;32.10;;;16.47;;
74363;SDS011;62797;49.740;10.154;2022-11-27T16:52:15;29.55;;;16.17;;